sensor_id;sensor_type;location;lat;lon;timestamp;P1;durP1;ratioP1;P2;durP2;ratioP2
77302;SDS011;66363;49.828;7.856;2023-04-24T00:00:24;0.22;;;0.20;;
77302;SDS011;66363;49.828;7.856;2023-04-24T00:02:50;1.25;;;1.00;;
77302;SDS011;66363;49.828;7.856;2023-04-24T00:05:16;0.25;;;0.25;;
77302;SDS011;66363;49.828;7.856;2023-04-24T00:07:44;0.43;;;0.15;;
77302;SDS011;66363;49.828;7.856;2023-04-24T00:10:10;0.85;;;0.55;;
77302;SDS011;66363;49.828;7.856;2023-04-24T00:12:37;1.05;;;0.65;;
77302;SDS011;66363;49.828;7.856;2023-04-24T00:17:28;0.60;;;0.47;;
77302;SDS011;66363;49.828;7.856;2023-04-24T00:19:54;0.13;;;0.10;;
77302;SDS011;66363;49.828;7.856;2023-04-24T00:22:20;0.85;;;0.55;;
77302;SDS011;66363;49.828;7.856;2023-04-24T00:24:47;1.02;;;0.70;;
77302;SDS011;66363;49.828;7.856;2023-04-24T00:27:12;0.40;;;0.40;;
77302;SDS011;66363;49.828;7.856;2023-04-24T00:29:38;1.85;;;0.25;;
77302;SDS011;66363;49.828;7.856;2023-04-24T00:32:04;0.95;;;0.40;;
77302;SDS011;66363;49.828;7.856;2023-04-24T00:34:30;2.13;;;0.60;;
77302;SDS011;66363;49.828;7.856;2023-04-24T00:36:55;0.50;;;0.50;;
77302;SDS011;66363;49.828;7.856;2023-04-24T00:39:21;1.00;;;0.55;;
77302;SDS011;66363;49.828;7.856;2023-04-24T00:41:48;0.22;;;0.20;;
77302;SDS011;66363;49.828;7.856;2023-04-24T00:44:14;1.23;;;0.90;;
77302;SDS011;66363;49.828;7.856;2023-04-24T00:46:40;0.17;;;0.17;;
77302;SDS011;66363;49.828;7.856;2023-04-24T00:49:07;0.63;;;0.63;;
77302;SDS011;66363;49.828;7.856;2023-04-24T00:51:33;0.32;;;0.30;;
77302;SDS011;66363;49.828;7.856;2023-04-24T00:53:58;0.80;;;0.63;;
77302;SDS011;66363;49.828;7.856;2023-04-24T00:56:24;1.13;;;0.52;;
77302;SDS011;66363;49.828;7.856;2023-04-24T00:58:52;0.77;;;0.43;;
77302;SDS011;66363;49.828;7.856;2023-04-24T01:01:18;1.13;;;0.88;;
77302;SDS011;66363;49.828;7.856;2023-04-24T01:03:46;0.40;;;0.40;;
77302;SDS011;66363;49.828;7.856;2023-04-24T01:06:11;0.77;;;0.40;;
77302;SDS011;66363;49.828;7.856;2023-04-24T01:08:38;1.30;;;0.70;;
77302;SDS011;66363;49.828;7.856;2023-04-24T01:11:06;0.47;;;0.47;;
77302;SDS011;66363;49.828;7.856;2023-04-24T01:13:32;0.43;;;0.43;;
77302;SDS011;66363;49.828;7.856;2023-04-24T01:16:00;0.35;;;0.30;;
77302;SDS011;66363;49.828;7.856;2023-04-24T01:18:26;0.75;;;0.30;;
77302;SDS011;66363;49.828;7.856;2023-04-24T01:20:52;0.50;;;0.50;;
77302;SDS011;66363;49.828;7.856;2023-04-24T01:23:22;0.68;;;0.60;;
77302;SDS011;66363;49.828;7.856;2023-04-24T01:25:48;1.02;;;0.50;;
77302;SDS011;66363;49.828;7.856;2023-04-24T01:28:14;1.50;;;0.35;;
77302;SDS011;66363;49.828;7.856;2023-04-24T01:30:40;1.75;;;0.50;;
77302;SDS011;66363;49.828;7.856;2023-04-24T01:35:32;0.40;;;0.40;;
77302;SDS011;66363;49.828;7.856;2023-04-24T01:37:58;0.43;;;0.20;;
77302;SDS011;66363;49.828;7.856;2023-04-24T01:40:25;0.50;;;0.50;;
77302;SDS011;66363;49.828;7.856;2023-04-24T01:42:51;1.75;;;0.50;;
77302;SDS011;66363;49.828;7.856;2023-04-24T01:45:17;0.30;;;0.30;;
77302;SDS011;66363;49.828;7.856;2023-04-24T01:47:43;0.70;;;0.70;;
77302;SDS011;66363;49.828;7.856;2023-04-24T01:50:10;0.60;;;0.57;;
77302;SDS011;66363;49.828;7.856;2023-04-24T01:52:36;0.70;;;0.60;;
77302;SDS011;66363;49.828;7.856;2023-04-24T01:55:02;0.45;;;0.40;;
77302;SDS011;66363;49.828;7.856;2023-04-24T01:59:55;0.70;;;0.57;;
77302;SDS011;66363;49.828;7.856;2023-04-24T02:02:21;1.30;;;0.50;;
77302;SDS011;66363;49.828;7.856;2023-04-24T02:04:46;1.05;;;0.75;;
77302;SDS011;66363;49.828;7.856;2023-04-24T02:07:12;0.28;;;0.28;;
77302;SDS011;66363;49.828;7.856;2023-04-24T02:09:38;2.25;;;0.60;;
77302;SDS011;66363;49.828;7.856;2023-04-24T02:12:04;1.02;;;0.70;;
77302;SDS011;66363;49.828;7.856;2023-04-24T02:14:31;0.82;;;0.45;;
77302;SDS011;66363;49.828;7.856;2023-04-24T02:16:56;0.57;;;0.45;;
77302;SDS011;66363;49.828;7.856;2023-04-24T02:19:22;0.60;;;0.40;;
77302;SDS011;66363;49.828;7.856;2023-04-24T02:21:48;0.20;;;0.20;;
77302;SDS011;66363;49.828;7.856;2023-04-24T02:24:14;0.50;;;0.50;;
77302;SDS011;66363;49.828;7.856;2023-04-24T02:26:39;0.38;;;0.35;;
77302;SDS011;66363;49.828;7.856;2023-04-24T02:29:05;1.50;;;0.28;;
77302;SDS011;66363;49.828;7.856;2023-04-24T02:31:32;0.43;;;0.43;;
77302;SDS011;66363;49.828;7.856;2023-04-24T02:33:58;0.28;;;0.28;;
77302;SDS011;66363;49.828;7.856;2023-04-24T02:36:23;0.70;;;0.45;;
77302;SDS011;66363;49.828;7.856;2023-04-24T02:38:49;0.57;;;0.45;;
77302;SDS011;66363;49.828;7.856;2023-04-24T02:41:15;1.50;;;0.50;;
77302;SDS011;66363;49.828;7.856;2023-04-24T02:43:40;0.38;;;0.38;;
77302;SDS011;66363;49.828;7.856;2023-04-24T02:46:06;0.38;;;0.38;;
77302;SDS011;66363;49.828;7.856;2023-04-24T02:48:33;0.82;;;0.60;;
77302;SDS011;66363;49.828;7.856;2023-04-24T02:50:59;3.20;;;0.35;;
77302;SDS011;66363;49.828;7.856;2023-04-24T02:53:25;0.77;;;0.45;;
77302;SDS011;66363;49.828;7.856;2023-04-24T02:55:50;0.55;;;0.47;;
77302;SDS011;66363;49.828;7.856;2023-04-24T02:58:16;0.28;;;0.28;;
77302;SDS011;66363;49.828;7.856;2023-04-24T03:00:42;0.28;;;0.20;;
77302;SDS011;66363;49.828;7.856;2023-04-24T03:03:07;0.43;;;0.43;;
77302;SDS011;66363;49.828;7.856;2023-04-24T03:05:35;0.63;;;0.55;;
77302;SDS011;66363;49.828;7.856;2023-04-24T03:08:00;0.68;;;0.68;;
77302;SDS011;66363;49.828;7.856;2023-04-24T03:10:26;0.22;;;0.22;;
77302;SDS011;66363;49.828;7.856;2023-04-24T03:12:52;0.50;;;0.50;;
77302;SDS011;66363;49.828;7.856;2023-04-24T03:15:17;0.55;;;0.47;;
77302;SDS011;66363;49.828;7.856;2023-04-24T03:17:43;0.47;;;0.47;;
77302;SDS011;66363;49.828;7.856;2023-04-24T03:20:09;0.85;;;0.60;;
77302;SDS011;66363;49.828;7.856;2023-04-24T03:22:36;0.70;;;0.60;;
77302;SDS011;66363;49.828;7.856;2023-04-24T03:25:02;1.02;;;0.65;;
77302;SDS011;66363;49.828;7.856;2023-04-24T03:27:28;0.73;;;0.52;;
77302;SDS011;66363;49.828;7.856;2023-04-24T03:29:54;0.50;;;0.50;;
77302;SDS011;66363;49.828;7.856;2023-04-24T03:32:19;0.70;;;0.68;;
77302;SDS011;66363;49.828;7.856;2023-04-24T03:34:45;1.27;;;0.73;;
77302;SDS011;66363;49.828;7.856;2023-04-24T03:37:11;0.90;;;0.55;;
77302;SDS011;66363;49.828;7.856;2023-04-24T03:39:38;1.25;;;0.63;;
77302;SDS011;66363;49.828;7.856;2023-04-24T03:42:03;0.93;;;0.63;;
77302;SDS011;66363;49.828;7.856;2023-04-24T03:44:29;1.10;;;0.57;;
77302;SDS011;66363;49.828;7.856;2023-04-24T03:46:55;0.63;;;0.63;;
77302;SDS011;66363;49.828;7.856;2023-04-24T03:49:20;1.58;;;0.90;;
77302;SDS011;66363;49.828;7.856;2023-04-24T03:51:46;0.82;;;0.63;;
77302;SDS011;66363;49.828;7.856;2023-04-24T03:54:12;1.05;;;0.68;;
77302;SDS011;66363;49.828;7.856;2023-04-24T03:56:39;1.15;;;0.80;;
77302;SDS011;66363;49.828;7.856;2023-04-24T03:59:04;0.88;;;0.60;;
77302;SDS011;66363;49.828;7.856;2023-04-24T04:01:30;0.60;;;0.60;;
77302;SDS011;66363;49.828;7.856;2023-04-24T04:03:56;0.88;;;0.80;;
77302;SDS011;66363;49.828;7.856;2023-04-24T04:06:21;0.77;;;0.75;;
77302;SDS011;66363;49.828;7.856;2023-04-24T04:08:47;1.27;;;1.08;;
77302;SDS011;66363;49.828;7.856;2023-04-24T04:11:13;0.85;;;0.63;;
77302;SDS011;66363;49.828;7.856;2023-04-24T04:13:40;1.05;;;0.77;;
77302;SDS011;66363;49.828;7.856;2023-04-24T04:16:05;0.88;;;0.73;;
77302;SDS011;66363;49.828;7.856;2023-04-24T04:20:57;0.75;;;0.70;;
77302;SDS011;66363;49.828;7.856;2023-04-24T04:23:22;1.80;;;0.85;;
77302;SDS011;66363;49.828;7.856;2023-04-24T04:25:48;0.75;;;0.70;;
77302;SDS011;66363;49.828;7.856;2023-04-24T04:28:14;1.08;;;0.55;;
77302;SDS011;66363;49.828;7.856;2023-04-24T04:30:41;1.10;;;0.80;;
77302;SDS011;66363;49.828;7.856;2023-04-24T04:33:06;1.35;;;0.93;;
77302;SDS011;66363;49.828;7.856;2023-04-24T04:35:32;0.52;;;0.52;;
77302;SDS011;66363;49.828;7.856;2023-04-24T04:37:58;1.35;;;0.68;;
77302;SDS011;66363;49.828;7.856;2023-04-24T04:40:23;0.82;;;0.82;;
77302;SDS011;66363;49.828;7.856;2023-04-24T04:42:49;0.93;;;0.60;;
77302;SDS011;66363;49.828;7.856;2023-04-24T04:45:14;0.63;;;0.45;;
77302;SDS011;66363;49.828;7.856;2023-04-24T04:47:42;1.23;;;0.93;;
77302;SDS011;66363;49.828;7.856;2023-04-24T04:50:08;0.88;;;0.60;;
77302;SDS011;66363;49.828;7.856;2023-04-24T04:52:34;1.13;;;0.98;;
77302;SDS011;66363;49.828;7.856;2023-04-24T04:55:00;1.48;;;1.20;;
77302;SDS011;66363;49.828;7.856;2023-04-24T04:57:25;1.40;;;1.20;;
77302;SDS011;66363;49.828;7.856;2023-04-24T04:59:51;1.05;;;0.90;;
77302;SDS011;66363;49.828;7.856;2023-04-24T05:02:16;1.52;;;0.90;;
77302;SDS011;66363;49.828;7.856;2023-04-24T05:04:43;1.17;;;0.88;;
77302;SDS011;66363;49.828;7.856;2023-04-24T05:07:09;1.40;;;1.00;;
77302;SDS011;66363;49.828;7.856;2023-04-24T05:09:35;1.02;;;0.80;;
77302;SDS011;66363;49.828;7.856;2023-04-24T05:12:00;1.42;;;0.90;;
77302;SDS011;66363;49.828;7.856;2023-04-24T05:14:26;1.70;;;1.20;;
77302;SDS011;66363;49.828;7.856;2023-04-24T05:16:52;1.55;;;1.02;;
77302;SDS011;66363;49.828;7.856;2023-04-24T05:19:17;1.23;;;0.90;;
77302;SDS011;66363;49.828;7.856;2023-04-24T05:21:44;1.25;;;0.80;;
77302;SDS011;66363;49.828;7.856;2023-04-24T05:24:10;1.08;;;0.88;;
77302;SDS011;66363;49.828;7.856;2023-04-24T05:26:36;1.80;;;0.90;;
77302;SDS011;66363;49.828;7.856;2023-04-24T05:29:01;2.80;;;0.93;;
77302;SDS011;66363;49.828;7.856;2023-04-24T05:31:27;1.48;;;1.08;;
77302;SDS011;66363;49.828;7.856;2023-04-24T05:33:53;1.92;;;1.20;;
77302;SDS011;66363;49.828;7.856;2023-04-24T05:36:18;1.80;;;1.00;;
77302;SDS011;66363;49.828;7.856;2023-04-24T05:38:45;1.80;;;1.20;;
77302;SDS011;66363;49.828;7.856;2023-04-24T05:41:11;1.23;;;0.80;;
77302;SDS011;66363;49.828;7.856;2023-04-24T05:43:37;1.20;;;1.08;;
77302;SDS011;66363;49.828;7.856;2023-04-24T05:46:02;2.10;;;1.20;;
77302;SDS011;66363;49.828;7.856;2023-04-24T05:48:28;1.67;;;1.20;;
77302;SDS011;66363;49.828;7.856;2023-04-24T05:50:54;2.15;;;1.20;;
77302;SDS011;66363;49.828;7.856;2023-04-24T05:53:20;1.02;;;0.82;;
77302;SDS011;66363;49.828;7.856;2023-04-24T05:55:47;1.63;;;1.25;;
77302;SDS011;66363;49.828;7.856;2023-04-24T05:58:12;2.20;;;1.40;;
77302;SDS011;66363;49.828;7.856;2023-04-24T06:00:38;1.77;;;1.20;;
77302;SDS011;66363;49.828;7.856;2023-04-24T06:03:04;2.00;;;1.00;;
77302;SDS011;66363;49.828;7.856;2023-04-24T06:05:29;2.33;;;1.23;;
77302;SDS011;66363;49.828;7.856;2023-04-24T06:07:55;1.98;;;1.48;;
77302;SDS011;66363;49.828;7.856;2023-04-24T06:10:21;3.10;;;1.60;;
77302;SDS011;66363;49.828;7.856;2023-04-24T06:12:48;2.28;;;1.83;;
77302;SDS011;66363;49.828;7.856;2023-04-24T06:15:14;2.03;;;1.38;;
77302;SDS011;66363;49.828;7.856;2023-04-24T06:17:39;2.35;;;1.35;;
77302;SDS011;66363;49.828;7.856;2023-04-24T06:20:05;1.98;;;1.63;;
77302;SDS011;66363;49.828;7.856;2023-04-24T06:22:32;1.92;;;1.55;;
77302;SDS011;66363;49.828;7.856;2023-04-24T06:24:57;1.92;;;1.40;;
77302;SDS011;66363;49.828;7.856;2023-04-24T06:27:25;1.65;;;1.45;;
77302;SDS011;66363;49.828;7.856;2023-04-24T06:29:53;2.00;;;1.30;;
77302;SDS011;66363;49.828;7.856;2023-04-24T06:32:18;1.90;;;1.45;;
77302;SDS011;66363;49.828;7.856;2023-04-24T06:34:44;2.65;;;1.30;;
77302;SDS011;66363;49.828;7.856;2023-04-24T06:37:10;2.28;;;1.30;;
77302;SDS011;66363;49.828;7.856;2023-04-24T06:39:36;2.72;;;1.52;;
77302;SDS011;66363;49.828;7.856;2023-04-24T06:42:02;2.10;;;1.38;;
77302;SDS011;66363;49.828;7.856;2023-04-24T06:44:28;2.22;;;1.50;;
77302;SDS011;66363;49.828;7.856;2023-04-24T06:46:55;3.20;;;1.60;;
77302;SDS011;66363;49.828;7.856;2023-04-24T06:49:20;2.13;;;1.50;;
77302;SDS011;66363;49.828;7.856;2023-04-24T06:51:47;3.35;;;1.50;;
77302;SDS011;66363;49.828;7.856;2023-04-24T06:54:12;2.45;;;1.58;;
77302;SDS011;66363;49.828;7.856;2023-04-24T06:56:38;1.70;;;1.05;;
77302;SDS011;66363;49.828;7.856;2023-04-24T06:59:04;1.83;;;1.10;;
77302;SDS011;66363;49.828;7.856;2023-04-24T07:01:30;1.45;;;1.23;;
77302;SDS011;66363;49.828;7.856;2023-04-24T07:03:57;2.42;;;1.23;;
77302;SDS011;66363;49.828;7.856;2023-04-24T07:06:23;1.50;;;0.93;;
77302;SDS011;66363;49.828;7.856;2023-04-24T07:08:49;2.00;;;1.25;;
77302;SDS011;66363;49.828;7.856;2023-04-24T07:11:14;2.35;;;1.35;;
77302;SDS011;66363;49.828;7.856;2023-04-24T07:13:40;1.52;;;0.85;;
77302;SDS011;66363;49.828;7.856;2023-04-24T07:16:05;0.98;;;0.75;;
77302;SDS011;66363;49.828;7.856;2023-04-24T07:18:31;1.25;;;0.80;;
77302;SDS011;66363;49.828;7.856;2023-04-24T07:20:58;1.48;;;1.10;;
77302;SDS011;66363;49.828;7.856;2023-04-24T07:23:24;1.35;;;1.08;;
77302;SDS011;66363;49.828;7.856;2023-04-24T07:25:49;1.17;;;0.77;;
77302;SDS011;66363;49.828;7.856;2023-04-24T07:28:15;1.08;;;0.82;;
77302;SDS011;66363;49.828;7.856;2023-04-24T07:30:41;1.40;;;1.15;;
77302;SDS011;66363;49.828;7.856;2023-04-24T07:33:06;1.58;;;0.98;;
77302;SDS011;66363;49.828;7.856;2023-04-24T07:35:32;0.98;;;0.88;;
77302;SDS011;66363;49.828;7.856;2023-04-24T07:37:59;1.20;;;0.88;;
77302;SDS011;66363;49.828;7.856;2023-04-24T07:40:25;1.50;;;0.90;;
77302;SDS011;66363;49.828;7.856;2023-04-24T07:42:51;1.20;;;1.00;;
77302;SDS011;66363;49.828;7.856;2023-04-24T07:45:17;1.08;;;0.98;;
77302;SDS011;66363;49.828;7.856;2023-04-24T07:47:42;1.48;;;0.85;;
77302;SDS011;66363;49.828;7.856;2023-04-24T07:50:08;1.10;;;1.00;;
77302;SDS011;66363;49.828;7.856;2023-04-24T07:52:35;0.98;;;0.85;;
77302;SDS011;66363;49.828;7.856;2023-04-24T07:55:03;2.10;;;1.27;;
77302;SDS011;66363;49.828;7.856;2023-04-24T07:57:31;1.92;;;1.20;;
77302;SDS011;66363;49.828;7.856;2023-04-24T07:59:58;1.30;;;0.90;;
77302;SDS011;66363;49.828;7.856;2023-04-24T08:02:24;1.33;;;0.90;;
77302;SDS011;66363;49.828;7.856;2023-04-24T08:04:50;1.48;;;0.90;;
77302;SDS011;66363;49.828;7.856;2023-04-24T08:07:16;1.25;;;0.95;;
77302;SDS011;66363;49.828;7.856;2023-04-24T08:09:42;1.20;;;0.88;;
77302;SDS011;66363;49.828;7.856;2023-04-24T08:12:09;1.83;;;0.80;;
77302;SDS011;66363;49.828;7.856;2023-04-24T08:14:35;1.70;;;0.85;;
77302;SDS011;66363;49.828;7.856;2023-04-24T08:17:01;2.10;;;1.23;;
77302;SDS011;66363;49.828;7.856;2023-04-24T08:19:27;1.88;;;1.30;;
77302;SDS011;66363;49.828;7.856;2023-04-24T08:21:53;1.33;;;0.98;;
77302;SDS011;66363;49.828;7.856;2023-04-24T08:24:18;1.75;;;0.98;;
77302;SDS011;66363;49.828;7.856;2023-04-24T08:26:44;2.30;;;1.38;;
77302;SDS011;66363;49.828;7.856;2023-04-24T08:29:12;1.20;;;0.75;;
77302;SDS011;66363;49.828;7.856;2023-04-24T08:31:38;2.17;;;1.17;;
77302;SDS011;66363;49.828;7.856;2023-04-24T08:34:03;1.58;;;1.20;;
77302;SDS011;66363;49.828;7.856;2023-04-24T08:36:29;1.88;;;1.27;;
77302;SDS011;66363;49.828;7.856;2023-04-24T08:38:55;2.95;;;1.38;;
77302;SDS011;66363;49.828;7.856;2023-04-24T08:41:20;1.65;;;1.20;;
77302;SDS011;66363;49.828;7.856;2023-04-24T08:43:47;1.50;;;1.00;;
77302;SDS011;66363;49.828;7.856;2023-04-24T08:48:40;2.00;;;1.10;;
77302;SDS011;66363;49.828;7.856;2023-04-24T08:51:06;1.95;;;1.20;;
77302;SDS011;66363;49.828;7.856;2023-04-24T08:53:33;1.45;;;1.17;;
77302;SDS011;66363;49.828;7.856;2023-04-24T08:55:59;1.23;;;0.80;;
77302;SDS011;66363;49.828;7.856;2023-04-24T08:58:26;1.05;;;0.80;;
77302;SDS011;66363;49.828;7.856;2023-04-24T09:00:53;1.00;;;0.80;;
77302;SDS011;66363;49.828;7.856;2023-04-24T09:03:21;1.55;;;1.05;;
77302;SDS011;66363;49.828;7.856;2023-04-24T09:05:47;1.70;;;1.00;;
77302;SDS011;66363;49.828;7.856;2023-04-24T09:08:13;1.67;;;1.10;;
77302;SDS011;66363;49.828;7.856;2023-04-24T09:10:41;1.88;;;1.02;;
77302;SDS011;66363;49.828;7.856;2023-04-24T09:13:07;1.38;;;0.73;;
77302;SDS011;66363;49.828;7.856;2023-04-24T09:15:32;1.08;;;0.80;;
77302;SDS011;66363;49.828;7.856;2023-04-24T09:17:58;1.30;;;0.77;;
77302;SDS011;66363;49.828;7.856;2023-04-24T09:20:25;1.15;;;0.75;;
77302;SDS011;66363;49.828;7.856;2023-04-24T09:22:53;1.67;;;1.08;;
77302;SDS011;66363;49.828;7.856;2023-04-24T09:25:19;1.50;;;0.98;;
77302;SDS011;66363;49.828;7.856;2023-04-24T09:27:45;3.15;;;0.95;;
77302;SDS011;66363;49.828;7.856;2023-04-24T09:30:11;1.67;;;1.02;;
77302;SDS011;66363;49.828;7.856;2023-04-24T09:32:37;1.20;;;0.90;;
77302;SDS011;66363;49.828;7.856;2023-04-24T09:35:10;1.80;;;1.25;;
77302;SDS011;66363;49.828;7.856;2023-04-24T09:37:38;1.75;;;0.90;;
77302;SDS011;66363;49.828;7.856;2023-04-24T09:40:09;2.13;;;1.25;;
77302;SDS011;66363;49.828;7.856;2023-04-24T09:42:40;1.33;;;0.80;;
77302;SDS011;66363;49.828;7.856;2023-04-24T09:45:08;1.33;;;1.00;;
77302;SDS011;66363;49.828;7.856;2023-04-24T09:47:35;1.83;;;0.82;;
77302;SDS011;66363;49.828;7.856;2023-04-24T09:50:08;1.48;;;1.00;;
77302;SDS011;66363;49.828;7.856;2023-04-24T09:52:35;1.40;;;0.90;;
77302;SDS011;66363;49.828;7.856;2023-04-24T09:55:02;0.77;;;0.55;;
77302;SDS011;66363;49.828;7.856;2023-04-24T09:57:35;1.42;;;1.10;;
77302;SDS011;66363;49.828;7.856;2023-04-24T10:00:01;1.52;;;0.80;;
77302;SDS011;66363;49.828;7.856;2023-04-24T10:02:27;1.73;;;1.08;;
77302;SDS011;66363;49.828;7.856;2023-04-24T10:04:57;1.48;;;1.30;;
77302;SDS011;66363;49.828;7.856;2023-04-24T10:07:23;1.08;;;0.77;;
77302;SDS011;66363;49.828;7.856;2023-04-24T10:09:51;1.15;;;0.85;;
77302;SDS011;66363;49.828;7.856;2023-04-24T10:12:18;2.08;;;1.00;;
77302;SDS011;66363;49.828;7.856;2023-04-24T10:14:44;1.83;;;1.17;;
77302;SDS011;66363;49.828;7.856;2023-04-24T10:17:11;2.80;;;1.30;;
77302;SDS011;66363;49.828;7.856;2023-04-24T10:19:38;1.50;;;0.77;;
77302;SDS011;66363;49.828;7.856;2023-04-24T10:22:06;0.82;;;0.75;;
77302;SDS011;66363;49.828;7.856;2023-04-24T10:24:33;1.35;;;0.73;;
77302;SDS011;66363;49.828;7.856;2023-04-24T10:26:59;1.02;;;0.85;;
77302;SDS011;66363;49.828;7.856;2023-04-24T10:29:26;1.52;;;1.20;;
77302;SDS011;66363;49.828;7.856;2023-04-24T10:31:55;1.55;;;1.08;;
77302;SDS011;66363;49.828;7.856;2023-04-24T10:34:20;1.55;;;1.15;;
77302;SDS011;66363;49.828;7.856;2023-04-24T10:36:49;3.63;;;1.00;;
77302;SDS011;66363;49.828;7.856;2023-04-24T10:39:16;1.58;;;0.60;;
77302;SDS011;66363;49.828;7.856;2023-04-24T10:41:43;0.70;;;0.70;;
77302;SDS011;66363;49.828;7.856;2023-04-24T10:44:10;1.42;;;1.00;;
77302;SDS011;66363;49.828;7.856;2023-04-24T10:46:39;0.60;;;0.60;;
77302;SDS011;66363;49.828;7.856;2023-04-24T10:49:08;1.15;;;0.85;;
77302;SDS011;66363;49.828;7.856;2023-04-24T10:51:47;1.20;;;1.00;;
77302;SDS011;66363;49.828;7.856;2023-04-24T10:54:23;1.10;;;0.80;;
77302;SDS011;66363;49.828;7.856;2023-04-24T10:56:50;3.83;;;1.40;;
77302;SDS011;66363;49.828;7.856;2023-04-24T11:01:53;1.85;;;1.10;;
77302;SDS011;66363;49.828;7.856;2023-04-24T11:04:28;1.60;;;0.85;;
77302;SDS011;66363;49.828;7.856;2023-04-24T11:06:54;1.98;;;0.90;;
77302;SDS011;66363;49.828;7.856;2023-04-24T11:09:20;1.73;;;1.20;;
77302;SDS011;66363;49.828;7.856;2023-04-24T11:11:46;0.40;;;0.40;;
77302;SDS011;66363;49.828;7.856;2023-04-24T11:14:13;1.52;;;0.93;;
77302;SDS011;66363;49.828;7.856;2023-04-24T11:16:43;1.95;;;0.98;;
77302;SDS011;66363;49.828;7.856;2023-04-24T11:19:18;1.55;;;1.25;;
77302;SDS011;66363;49.828;7.856;2023-04-24T11:21:47;2.53;;;1.10;;
77302;SDS011;66363;49.828;7.856;2023-04-24T11:24:27;1.85;;;0.98;;
77302;SDS011;66363;49.828;7.856;2023-04-24T11:26:54;1.50;;;0.88;;
77302;SDS011;66363;49.828;7.856;2023-04-24T11:29:21;3.92;;;1.25;;
77302;SDS011;66363;49.828;7.856;2023-04-24T11:34:14;1.20;;;0.77;;
77302;SDS011;66363;49.828;7.856;2023-04-24T11:36:42;1.63;;;0.90;;
77302;SDS011;66363;49.828;7.856;2023-04-24T11:39:08;1.90;;;1.33;;
77302;SDS011;66363;49.828;7.856;2023-04-24T11:41:34;4.18;;;1.08;;
77302;SDS011;66363;49.828;7.856;2023-04-24T11:44:00;0.88;;;0.82;;
77302;SDS011;66363;49.828;7.856;2023-04-24T11:46:28;1.73;;;1.23;;
77302;SDS011;66363;49.828;7.856;2023-04-24T11:51:20;1.55;;;1.02;;
77302;SDS011;66363;49.828;7.856;2023-04-24T11:53:47;2.42;;;1.40;;
77302;SDS011;66363;49.828;7.856;2023-04-24T11:56:16;3.20;;;1.70;;
77302;SDS011;66363;49.828;7.856;2023-04-24T11:58:43;3.58;;;1.50;;
77302;SDS011;66363;49.828;7.856;2023-04-24T12:01:09;1.77;;;1.33;;
77302;SDS011;66363;49.828;7.856;2023-04-24T12:03:35;2.40;;;1.30;;
77302;SDS011;66363;49.828;7.856;2023-04-24T12:06:07;2.83;;;1.38;;
77302;SDS011;66363;49.828;7.856;2023-04-24T12:08:35;3.53;;;0.95;;
77302;SDS011;66363;49.828;7.856;2023-04-24T12:11:01;2.33;;;1.40;;
77302;SDS011;66363;49.828;7.856;2023-04-24T12:15:52;1.65;;;1.30;;
77302;SDS011;66363;49.828;7.856;2023-04-24T12:18:18;1.85;;;1.38;;
77302;SDS011;66363;49.828;7.856;2023-04-24T12:20:47;3.25;;;1.58;;
77302;SDS011;66363;49.828;7.856;2023-04-24T12:23:12;3.22;;;1.38;;
77302;SDS011;66363;49.828;7.856;2023-04-24T12:25:39;1.60;;;1.40;;
77302;SDS011;66363;49.828;7.856;2023-04-24T12:28:10;1.45;;;1.20;;
77302;SDS011;66363;49.828;7.856;2023-04-24T12:30:39;3.58;;;1.67;;
77302;SDS011;66363;49.828;7.856;2023-04-24T12:33:06;1.42;;;1.20;;
77302;SDS011;66363;49.828;7.856;2023-04-24T12:35:32;2.63;;;1.60;;
77302;SDS011;66363;49.828;7.856;2023-04-24T12:38:05;4.88;;;1.48;;
77302;SDS011;66363;49.828;7.856;2023-04-24T12:40:31;1.58;;;1.10;;
77302;SDS011;66363;49.828;7.856;2023-04-24T12:42:58;1.13;;;1.02;;
77302;SDS011;66363;49.828;7.856;2023-04-24T12:45:24;2.40;;;1.35;;
77302;SDS011;66363;49.828;7.856;2023-04-24T12:47:49;1.65;;;1.23;;
77302;SDS011;66363;49.828;7.856;2023-04-24T12:50:15;1.60;;;1.30;;
77302;SDS011;66363;49.828;7.856;2023-04-24T12:52:41;2.28;;;1.55;;
77302;SDS011;66363;49.828;7.856;2023-04-24T12:55:08;2.05;;;1.38;;
77302;SDS011;66363;49.828;7.856;2023-04-24T13:00:01;2.00;;;1.30;;
77302;SDS011;66363;49.828;7.856;2023-04-24T13:02:28;1.52;;;1.20;;
77302;SDS011;66363;49.828;7.856;2023-04-24T13:04:55;1.25;;;1.00;;
77302;SDS011;66363;49.828;7.856;2023-04-24T13:07:20;3.60;;;1.40;;
77302;SDS011;66363;49.828;7.856;2023-04-24T13:09:47;2.03;;;1.40;;
77302;SDS011;66363;49.828;7.856;2023-04-24T13:12:13;1.42;;;1.20;;
77302;SDS011;66363;49.828;7.856;2023-04-24T13:14:39;1.27;;;1.10;;
77302;SDS011;66363;49.828;7.856;2023-04-24T13:17:06;2.22;;;1.40;;
77302;SDS011;66363;49.828;7.856;2023-04-24T13:19:35;1.17;;;0.93;;
77302;SDS011;66363;49.828;7.856;2023-04-24T13:22:01;0.82;;;0.82;;
77302;SDS011;66363;49.828;7.856;2023-04-24T13:24:27;3.05;;;1.23;;
77302;SDS011;66363;49.828;7.856;2023-04-24T13:26:53;1.75;;;1.50;;
77302;SDS011;66363;49.828;7.856;2023-04-24T13:29:18;3.03;;;1.25;;
77302;SDS011;66363;49.828;7.856;2023-04-24T13:31:44;1.55;;;1.30;;
77302;SDS011;66363;49.828;7.856;2023-04-24T13:34:12;1.60;;;1.20;;
77302;SDS011;66363;49.828;7.856;2023-04-24T13:36:37;2.20;;;1.50;;
77302;SDS011;66363;49.828;7.856;2023-04-24T13:39:03;2.72;;;1.52;;
77302;SDS011;66363;49.828;7.856;2023-04-24T13:41:30;1.10;;;1.00;;
77302;SDS011;66363;49.828;7.856;2023-04-24T13:43:58;1.70;;;1.20;;
77302;SDS011;66363;49.828;7.856;2023-04-24T13:46:23;2.15;;;1.23;;
77302;SDS011;66363;49.828;7.856;2023-04-24T13:48:49;3.80;;;1.58;;
77302;SDS011;66363;49.828;7.856;2023-04-24T13:51:16;1.92;;;1.30;;
77302;SDS011;66363;49.828;7.856;2023-04-24T13:53:42;1.55;;;1.30;;
77302;SDS011;66363;49.828;7.856;2023-04-24T13:56:07;2.38;;;1.60;;
77302;SDS011;66363;49.828;7.856;2023-04-24T13:58:33;2.10;;;1.33;;
77302;SDS011;66363;49.828;7.856;2023-04-24T14:00:59;3.50;;;1.65;;
77302;SDS011;66363;49.828;7.856;2023-04-24T14:03:24;2.33;;;1.30;;
77302;SDS011;66363;49.828;7.856;2023-04-24T14:05:50;1.35;;;1.20;;
77302;SDS011;66363;49.828;7.856;2023-04-24T14:08:17;2.15;;;1.55;;
77302;SDS011;66363;49.828;7.856;2023-04-24T14:10:42;2.20;;;1.55;;
77302;SDS011;66363;49.828;7.856;2023-04-24T14:13:08;2.20;;;1.23;;
77302;SDS011;66363;49.828;7.856;2023-04-24T14:15:35;2.25;;;1.17;;
77302;SDS011;66363;49.828;7.856;2023-04-24T14:18:00;1.63;;;1.10;;
77302;SDS011;66363;49.828;7.856;2023-04-24T14:20:26;2.47;;;1.20;;
77302;SDS011;66363;49.828;7.856;2023-04-24T14:22:52;1.80;;;1.02;;
77302;SDS011;66363;49.828;7.856;2023-04-24T14:25:19;1.55;;;1.13;;
77302;SDS011;66363;49.828;7.856;2023-04-24T14:27:44;1.20;;;1.00;;
77302;SDS011;66363;49.828;7.856;2023-04-24T14:30:10;1.88;;;1.17;;
77302;SDS011;66363;49.828;7.856;2023-04-24T14:32:37;1.65;;;1.15;;
77302;SDS011;66363;49.828;7.856;2023-04-24T14:35:03;2.92;;;1.48;;
77302;SDS011;66363;49.828;7.856;2023-04-24T14:37:29;1.58;;;1.23;;
77302;SDS011;66363;49.828;7.856;2023-04-24T14:39:55;2.70;;;1.50;;
77302;SDS011;66363;49.828;7.856;2023-04-24T14:42:22;1.77;;;1.30;;
77302;SDS011;66363;49.828;7.856;2023-04-24T14:44:48;2.47;;;1.70;;
77302;SDS011;66363;49.828;7.856;2023-04-24T14:47:13;2.53;;;1.52;;
77302;SDS011;66363;49.828;7.856;2023-04-24T14:49:39;2.35;;;1.50;;
77302;SDS011;66363;49.828;7.856;2023-04-24T14:52:05;3.17;;;1.40;;
77302;SDS011;66363;49.828;7.856;2023-04-24T14:54:30;2.13;;;1.70;;
77302;SDS011;66363;49.828;7.856;2023-04-24T14:56:56;3.90;;;1.40;;
77302;SDS011;66363;49.828;7.856;2023-04-24T14:59:23;2.20;;;1.48;;
77302;SDS011;66363;49.828;7.856;2023-04-24T15:01:49;1.90;;;1.42;;
77302;SDS011;66363;49.828;7.856;2023-04-24T15:04:14;1.35;;;1.10;;
77302;SDS011;66363;49.828;7.856;2023-04-24T15:06:40;2.63;;;1.83;;